Time;durP1;ratioP1;P1;durP2;ratioP2;P2;SDS_P1;SDS_P2;PMS_P1;PMS_P2;Temp;Humidity;BMP_temperature;BMP_pressure;BME280_temperature;BME280_humidity;BME280_pressure;Samples;Min_cycle;Max_cycle;Signal;HPM_P1;HPM_P2
2023/03/21 00:01:54;;;;;;;30.02;17.40;;;;;;;8.93;100.00;101495.50;5075487;28;20483;-52
2023/03/21 00:04:22;;;;;;;26.58;15.80;;;;;;;8.96;100.00;101497.16;5075306;28;20363;-51
2023/03/21 00:06:51;;;;;;;30.42;17.60;;;;;;;8.93;100.00;101492.88;5075684;28;20522;-49
2023/03/21 00:09:20;;;;;;;26.35;17.70;;;;;;;8.92;100.00;101488.56;5073924;28;20040;-51
2023/03/21 00:11:49;;;;;;;31.58;19.02;;;;;;;8.91;100.00;101481.59;5071935;28;20076;-51
2023/03/21 00:14:18;;;;;;;26.98;17.60;;;;;;;8.87;100.00;101481.84;5073737;28;20476;-52
2023/03/21 00:16:49;;;;;;;31.17;19.45;;;;;;;8.91;100.00;101484.22;5075079;28;20519;-51
2023/03/21 00:19:20;;;;;;;28.08;17.65;;;;;;;8.91;100.00;101484.22;5074575;28;20048;-52
2023/03/21 00:21:51;;;;;;;30.23;18.25;;;;;;;8.94;100.00;101484.09;5071289;28;20419;-50
2023/03/21 00:24:35;;;;;;;25.60;17.15;;;;;;;8.92;100.00;101480.69;5073332;28;20041;-52
2023/03/21 00:27:03;;;;;;;28.77;17.85;;;;;;;8.86;100.00;101478.38;5071847;28;20041;-52
2023/03/21 00:29:52;;;;;;;34.67;18.55;;;;;;;8.81;100.00;101467.25;5070666;28;20486;-53
2023/03/21 00:32:21;;;;;;;31.25;18.50;;;;;;;8.83;100.00;101465.38;5070144;28;20062;-53
2023/03/21 00:34:51;;;;;;;30.60;18.63;;;;;;;8.85;100.00;101471.41;5072358;28;20036;-50
2023/03/21 00:37:40;;;;;;;28.30;17.23;;;;;;;8.86;100.00;101462.63;5074137;28;20101;-49
2023/03/21 00:40:10;;;;;;;26.00;18.65;;;;;;;8.81;100.00;101454.13;5073884;28;20797;-51
2023/03/21 00:42:52;;;;;;;31.42;18.52;;;;;;;8.84;100.00;101456.59;5071131;28;20064;-50
2023/03/21 00:45:21;;;;;;;27.70;18.73;;;;;;;8.81;100.00;101454.13;5073283;28;20046;-51
2023/03/21 00:47:49;;;;;;;28.17;17.65;;;;;;;8.82;100.00;101450.59;5073451;28;20057;-53
2023/03/21 00:50:19;;;;;;;29.33;18.00;;;;;;;8.79;100.00;101446.34;5074530;28;20048;-52
2023/03/21 00:52:48;;;;;;;28.40;18.58;;;;;;;8.80;100.00;101445.41;5074519;28;20048;-51
2023/03/21 00:55:19;;;;;;;26.25;17.05;;;;;;;8.88;100.00;101446.81;5074369;28;20115;-50
2023/03/21 00:57:47;;;;;;;25.38;17.30;;;;;;;8.81;100.00;101448.88;5074618;28;20044;-52
2023/03/21 01:00:27;;;;;;;26.33;16.77;;;;;;;8.86;100.00;101443.41;5072960;28;20044;-50
2023/03/21 01:03:04;;;;;;;26.17;16.73;;;;;;;8.88;100.00;101447.66;5073883;28;20369;-52
2023/03/21 01:06:04;;;;;;;25.90;16.27;;;;;;;8.85;100.00;101436.44;5070470;28;20044;-52
2023/03/21 01:08:35;;;;;;;26.90;16.58;;;;;;;8.85;100.00;101439.94;5073588;28;20056;-54
2023/03/21 01:11:21;;;;;;;24.85;16.00;;;;;;;8.86;100.00;101439.03;5074047;28;20045;-56
2023/03/21 01:13:53;;;;;;;23.80;14.88;;;;;;;8.85;100.00;101432.06;5074368;28;20399;-54
2023/03/21 01:16:38;;;;;;;24.73;15.55;;;;;;;8.86;100.00;101422.44;5074000;28;20059;-53
2023/03/21 01:19:14;;;;;;;22.73;14.45;;;;;;;8.87;100.00;101432.84;5073430;28;20491;-52
2023/03/21 01:21:56;;;;;;;24.75;14.93;;;;;;;8.84;100.00;101422.50;5068704;28;20067;-54
2023/03/21 01:24:24;;;;;;;25.40;14.68;;;;;;;8.84;100.00;101414.63;5070105;28;20079;-54
2023/03/21 01:26:54;;;;;;;23.17;14.20;;;;;;;8.78;100.00;101412.28;5072153;28;20399;-53
2023/03/21 01:29:22;;;;;;;23.77;14.68;;;;;;;8.77;100.00;101419.31;5073621;28;20068;-50
2023/03/21 01:31:50;;;;;;;23.73;14.55;;;;;;;8.72;100.00;101413.44;5073699;28;20098;-50
2023/03/21 01:34:19;;;;;;;25.20;14.82;;;;;;;8.66;100.00;101405.88;5073550;28;20061;-52
2023/03/21 01:36:48;;;;;;;22.45;14.07;;;;;;;8.67;100.00;101410.22;5072714;28;20383;-52
2023/03/21 01:39:18;;;;;;;22.10;13.57;;;;;;;8.68;100.00;101408.44;5069677;28;20472;-51
2023/03/21 01:41:46;;;;;;;22.67;14.25;;;;;;;8.70;100.00;101403.94;5069778;28;20040;-51
2023/03/21 01:44:16;;;;;;;23.77;14.88;;;;;;;8.68;100.00;101406.66;5072764;28;20044;-51
2023/03/21 01:46:48;;;;;;;26.08;15.05;;;;;;;8.64;100.00;101397.22;5072762;28;20052;-50
2023/03/21 01:49:37;;;;;;;24.30;14.52;;;;;;;8.73;100.00;101399.41;5068450;28;20048;-52
2023/03/21 01:52:08;;;;;;;24.63;14.65;;;;;;;8.65;100.00;101398.09;5067973;28;20477;-50
2023/03/21 01:54:47;;;;;;;24.00;15.25;;;;;;;8.62;100.00;101399.09;5069305;28;20065;-49
2023/03/21 01:57:22;;;;;;;24.10;14.85;;;;;;;8.62;100.00;101399.94;5069484;28;20075;-53
2023/03/21 01:59:54;;;;;;;22.13;14.93;;;;;;;8.64;100.00;101394.59;5069641;28;20041;-50
2023/03/21 02:02:27;;;;;;;25.55;15.38;;;;;;;8.63;100.00;101396.41;5068257;28;20050;-52
2023/03/21 02:04:57;;;;;;;26.00;15.05;;;;;;;8.66;100.00;101391.91;5071850;28;20044;-51
2023/03/21 02:07:30;;;;;;;23.48;15.23;;;;;;;8.66;100.00;101377.03;5073106;28;20557;-50
2023/03/21 02:10:02;;;;;;;23.08;15.85;;;;;;;8.65;100.00;101377.97;5073022;28;20048;-52
2023/03/21 02:12:32;;;;;;;23.98;15.32;;;;;;;8.58;100.00;101380.03;5073384;28;20126;-51
2023/03/21 02:15:03;;;;;;;23.90;15.77;;;;;;;8.59;100.00;101379.13;5070464;28;20043;-51
2023/03/21 02:17:39;;;;;;;26.23;16.25;;;;;;;8.60;100.00;101370.34;5068043;28;20044;-53
2023/03/21 02:20:49;;;;;;;22.10;14.45;;;;;;;8.61;100.00;101368.53;5071559;28;20048;-52
2023/03/21 02:23:44;;;;;;;22.05;15.40;;;;;;;8.62;100.00;101359.75;5072743;28;20045;-51
2023/03/21 02:26:52;;;;;;;26.58;16.27;;;;;;;8.57;100.00;101361.75;5067775;28;20530;-50
2023/03/21 02:30:15;;;;;;;27.75;17.35;;;;;;;8.60;100.00;101362.47;5069116;28;20482;-50
2023/03/21 02:33:16;;;;;;;27.58;17.65;;;;;;;8.63;100.00;101351.81;5007110;28;20065;-50
2023/03/21 02:36:07;;;;;;;29.05;17.50;;;;;;;8.59;100.00;101346.81;5069992;28;20136;-52
2023/03/21 02:38:53;;;;;;;29.75;17.52;;;;;;;8.55;100.00;101351.34;5072386;28;20052;-51
2023/03/21 02:41:29;;;;;;;27.50;17.42;;;;;;;8.54;100.00;101348.81;5072035;28;20041;-51
2023/03/21 02:44:15;;;;;;;30.75;18.95;;;;;;;8.58;100.00;101345.09;5072013;28;20462;-50
2023/03/21 02:46:49;;;;;;;28.58;17.92;;;;;;;8.54;100.00;101340.94;5072317;28;20036;-51
2023/03/21 02:49:41;;;;;;;26.90;17.42;;;;;;;8.59;100.00;101341.56;5067629;28;20056;-51
2023/03/21 02:52:15;;;;;;;28.08;17.20;;;;;;;8.57;100.00;101331.13;5070075;28;20052;-51
2023/03/21 02:54:58;;;;;;;25.05;16.80;;;;;;;8.59;100.00;101331.91;5072184;28;20047;-51
2023/03/21 02:57:27;;;;;;;27.30;17.98;;;;;;;8.60;100.00;101335.38;5072285;28;20052;-52
2023/03/21 03:00:13;;;;;;;24.50;16.58;;;;;;;8.61;100.00;101326.59;5071976;28;20098;-53
2023/03/21 03:02:45;;;;;;;24.23;15.80;;;;;;;8.63;100.00;101330.84;5069079;28;20064;-54
2023/03/21 03:05:18;;;;;;;24.83;17.13;;;;;;;8.66;100.00;101327.22;5068199;28;20049;-50
2023/03/21 03:08:03;;;;;;;24.15;17.08;;;;;;;8.66;100.00;101326.34;5071776;28;20072;-51
2023/03/21 03:10:50;;;;;;;24.42;16.50;;;;;;;8.60;100.00;101323.13;5072104;28;20491;-52
2023/03/21 03:13:35;;;;;;;25.83;16.58;;;;;;;8.60;100.00;101324.88;5069901;28;20376;-52
2023/03/21 03:16:15;;;;;;;22.73;14.93;;;;;;;8.67;100.00;101328.06;5067867;28;20055;-50
2023/03/21 03:18:52;;;;;;;24.48;15.50;;;;;;;8.75;100.00;101328.53;5072317;28;20045;-52
2023/03/21 03:21:24;;;;;;;27.00;16.67;;;;;;;8.63;100.00;101325.59;5072106;28;20048;-52
2023/03/21 03:23:56;;;;;;;26.48;16.98;;;;;;;8.68;100.00;101324.53;5072109;28;20037;-51
2023/03/21 03:26:29;;;;;;;23.90;16.60;;;;;;;8.72;100.00;101328.69;5071871;28;20045;-51
2023/03/21 03:29:03;;;;;;;24.92;16.13;;;;;;;8.66;100.00;101328.97;5068211;28;20056;-49
2023/03/21 03:31:34;;;;;;;26.08;16.05;;;;;;;8.62;100.00;101328.31;5067495;28;20051;-50
2023/03/21 03:34:07;;;;;;;24.95;16.30;;;;;;;8.62;100.00;101321.28;5065599;28;20055;-53
2023/03/21 03:36:40;;;;;;;25.08;16.75;;;;;;;8.68;100.00;101321.91;5071248;28;20037;-48
2023/03/21 03:39:10;;;;;;;;;;;;;;;8.60;100.00;101323.13;5071275;28;20502;-51
2023/03/21 03:41:46;;;;;;;25.92;14.90;;;;;;;8.61;100.00;101322.19;5068617;28;19970;-51
2023/03/21 03:44:35;;;;;;;28.95;16.17;;;;;;;8.59;100.00;101315.34;5071154;28;20098;-50
2023/03/21 03:47:08;;;;;;;25.65;15.02;;;;;;;8.57;100.00;101314.56;5071935;28;20071;-52
2023/03/21 03:49:46;;;;;;;26.35;15.10;;;;;;;8.63;100.00;101322.97;5071829;28;20120;-51
2023/03/21 03:52:20;;;;;;;25.92;14.65;;;;;;;8.61;100.00;101318.72;5070155;28;20170;-50
2023/03/21 03:54:51;;;;;;;26.17;14.15;;;;;;;8.60;100.00;101314.41;5068159;28;20046;-52
2023/03/21 03:57:21;;;;;;;28.58;14.30;;;;;;;8.59;100.00;101316.19;5070258;28;20052;-50
2023/03/21 03:59:50;;;;;;;25.13;13.27;;;;;;;8.59;100.00;101312.72;5068398;28;20139;-52
2023/03/21 04:02:19;;;;;;;23.67;13.25;;;;;;;8.56;100.00;101316.34;5067882;28;20040;-52
2023/03/21 04:04:51;;;;;;;26.42;12.75;;;;;;;8.55;100.00;101312.03;5070963;28;20514;-49
2023/03/21 04:07:21;;;;;;;27.23;13.13;;;;;;;8.57;100.00;101322.44;5070869;28;20439;-51
2023/03/21 04:09:50;;;;;;;24.63;12.85;;;;;;;8.55;100.00;101316.41;5071441;28;20112;-51
2023/03/21 04:12:20;;;;;;;20.85;11.98;;;;;;;8.53;100.00;101316.47;5073523;28;20053;-51
2023/03/21 04:14:50;;;;;;;20.40;11.80;;;;;;;8.56;100.00;101313.72;5074406;28;20056;-50
2023/03/21 04:17:20;;;;;;;25.77;13.38;;;;;;;8.52;100.00;101311.31;5070393;28;20563;-51
2023/03/21 04:19:50;;;;;;;20.50;11.52;;;;;;;8.52;100.00;101303.44;5070713;28;20044;-49
2023/03/21 04:22:25;;;;;;;20.23;11.80;;;;;;;8.59;100.00;101307.47;5071763;28;20052;-50
2023/03/21 04:24:54;;;;;;;18.70;11.40;;;;;;;8.56;100.00;101302.38;5071154;28;20063;-52
2023/03/21 04:27:24;;;;;;;21.38;11.23;;;;;;;8.52;100.00;101303.44;5075391;28;20055;-52
2023/03/21 04:29:54;;;;;;;23.83;11.27;;;;;;;8.48;100.00;101294.91;5074950;28;20049;-51
2023/03/21 04:32:23;;;;;;;21.83;11.88;;;;;;;8.49;100.00;101298.38;5073592;28;20052;-52
2023/03/21 04:34:52;;;;;;;21.98;10.90;;;;;;;8.49;100.00;101296.56;5071799;28;20041;-50
2023/03/21 04:37:22;;;;;;;18.88;10.95;;;;;;;8.49;100.00;101301.81;5070790;28;20101;-52
2023/03/21 04:39:51;;;;;;;21.48;11.13;;;;;;;8.46;100.00;101294.94;5073910;28;20044;-54
2023/03/21 04:42:20;;;;;;;20.63;11.23;;;;;;;8.45;100.00;101288.03;5071312;28;20048;-51
2023/03/21 04:44:50;;;;;;;23.00;11.70;;;;;;;8.43;100.00;101287.22;5072991;28;20040;-59
2023/03/21 04:47:20;;;;;;;22.27;10.82;;;;;;;8.42;100.00;101289.91;5075089;28;20068;-60
2023/03/21 04:49:49;;;;;;;24.65;11.10;;;;;;;8.41;100.00;101291.69;5074986;28;20430;-59
2023/03/21 04:52:17;;;;;;;25.02;11.45;;;;;;;8.38;100.00;101286.59;5074922;28;20437;-60
2023/03/21 04:54:46;;;;;;;27.10;11.75;;;;;;;8.43;100.00;101287.22;5075000;28;20040;-59
2023/03/21 04:57:15;;;;;;;20.63;12.10;;;;;;;8.39;100.00;101288.28;5074656;28;20045;-59
2023/03/21 04:59:43;;;;;;;20.33;11.75;;;;;;;8.34;100.00;101279.78;5073114;28;20048;-59
2023/03/21 05:02:16;;;;;;;19.13;11.27;;;;;;;8.33;100.00;101278.13;5071806;28;20052;-60
2023/03/21 05:04:44;;;;;;;22.50;11.68;;;;;;;8.31;100.00;101279.94;5074331;28;20033;-60
2023/03/21 05:07:12;;;;;;;21.08;12.23;;;;;;;8.35;100.00;101280.66;5072190;28;20048;-59
2023/03/21 05:09:41;;;;;;;22.08;12.13;;;;;;;8.29;100.00;101279.19;5072491;28;20045;-59
2023/03/21 05:12:09;;;;;;;21.83;12.65;;;;;;;8.28;100.00;101280.94;5073507;28;20074;-59
2023/03/21 05:14:38;;;;;;;21.67;12.32;;;;;;;8.30;100.00;101278.25;5071123;28;20048;-58
2023/03/21 05:17:07;;;;;;;24.17;11.88;;;;;;;8.26;100.00;101277.56;5071099;28;20067;-58
2023/03/21 05:19:39;;;;;;;24.60;12.32;;;;;;;8.26;100.00;101280.19;5073523;28;20079;-59
2023/03/21 05:22:09;;;;;;;20.95;11.95;;;;;;;8.28;100.00;101278.31;5070971;28;20491;-59
2023/03/21 05:24:40;;;;;;;20.67;12.05;;;;;;;8.25;100.00;101275.88;5071283;28;20052;-58
2023/03/21 05:27:09;;;;;;;25.75;12.32;;;;;;;8.19;100.00;101278.75;5073253;28;20437;-58
2023/03/21 05:29:37;;;;;;;22.65;12.32;;;;;;;8.26;100.00;101277.56;5070866;28;20415;-58
2023/03/21 05:32:06;;;;;;;23.83;12.00;;;;;;;8.22;100.00;101283.88;5069472;28;20040;-58
2023/03/21 05:34:34;;;;;;;22.55;12.40;;;;;;;8.21;100.00;101283.97;5074132;28;20044;-58
2023/03/21 05:37:04;;;;;;;19.50;11.52;;;;;;;8.23;100.00;101284.72;5071747;28;20044;-58
2023/03/21 05:39:33;;;;;;;25.38;12.48;;;;;;;8.20;100.00;101279.63;5070133;28;20087;-58
2023/03/21 05:42:01;;;;;;;20.83;12.02;;;;;;;8.19;100.00;101285.78;5072975;28;20036;-59
2023/03/21 05:44:30;;;;;;;22.48;11.75;;;;;;;8.20;100.00;101288.34;5070266;28;20495;-58
2023/03/21 05:46:58;;;;;;;24.23;11.57;;;;;;;8.22;100.00;101278.63;5070763;28;20047;-58
2023/03/21 05:49:27;;;;;;;19.40;11.30;;;;;;;8.28;100.00;101272.25;5072182;28;20056;-58
2023/03/21 05:51:55;;;;;;;18.13;10.82;;;;;;;8.26;100.00;101272.31;5070826;28;20048;-58
2023/03/21 05:54:26;;;;;;;21.58;10.45;;;;;;;8.23;100.00;101275.06;5069537;28;20102;-58
2023/03/21 05:56:54;;;;;;;21.10;10.70;;;;;;;8.27;100.00;101271.38;5070207;28;20387;-59
2023/03/21 05:59:23;;;;;;;22.73;11.13;;;;;;;8.28;100.00;101262.59;5070092;28;20583;-58
2023/03/21 06:01:51;;;;;;;23.65;11.90;;;;;;;8.25;100.00;101265.38;5069440;28;20114;-59
2023/03/21 06:04:20;;;;;;;20.65;10.55;;;;;;;8.32;100.00;101260.69;5071384;28;20513;-58
2023/03/21 06:06:49;;;;;;;20.70;10.50;;;;;;;8.26;100.00;101261.84;5071948;28;20047;-58
2023/03/21 06:09:18;;;;;;;20.17;10.52;;;;;;;8.29;100.00;101260.84;5070228;28;20539;-58
2023/03/21 06:11:50;;;;;;;21.25;10.52;;;;;;;8.25;100.00;101262.75;5068896;28;20053;-58
2023/03/21 06:14:20;;;;;;;20.58;9.82;;;;;;;8.25;100.00;101260.13;5069538;28;20118;-58
2023/03/21 06:16:52;;;;;;;22.90;11.18;;;;;;;8.25;100.00;101259.31;5071390;28;20045;-60
2023/03/21 06:19:21;;;;;;;22.27;11.25;;;;;;;8.21;100.00;101258.59;5073018;28;20075;-58
2023/03/21 06:21:50;;;;;;;21.33;11.30;;;;;;;8.22;100.00;101248.94;5072629;28;20552;-58
2023/03/21 06:24:18;;;;;;;19.85;10.82;;;;;;;8.21;100.00;101258.59;5069661;28;20048;-59
2023/03/21 06:26:48;;;;;;;22.40;11.57;;;;;;;8.26;100.00;101256.59;5069945;28;20044;-59
2023/03/21 06:29:17;;;;;;;24.60;10.82;;;;;;;8.26;100.00;101261.84;5070157;28;20126;-59
2023/03/21 06:31:45;;;;;;;23.50;11.00;;;;;;;8.27;100.00;101263.53;5072919;28;20040;-59
2023/03/21 06:34:14;;;;;;;22.55;11.13;;;;;;;8.25;100.00;101260.13;5072183;28;20079;-60
2023/03/21 06:36:43;;;;;;;22.20;11.05;;;;;;;8.28;100.00;101257.38;5071955;28;20048;-58
2023/03/21 06:39:12;;;;;;;22.35;10.55;;;;;;;8.31;100.00;101258.16;5069561;28;20059;-60
2023/03/21 06:41:41;;;;;;;20.27;11.43;;;;;;;8.25;100.00;101256.69;5070016;28;20106;-60
2023/03/21 06:44:11;;;;;;;26.38;12.13;;;;;;;8.26;100.00;101255.75;5070057;28;20048;-60
2023/03/21 06:46:39;;;;;;;23.23;11.07;;;;;;;8.26;100.00;101258.34;5069739;28;20071;-60
2023/03/21 06:49:08;;;;;;;19.88;10.45;;;;;;;8.27;100.00;101254.81;5068915;28;20502;-60
2023/03/21 06:51:37;;;;;;;20.52;10.82;;;;;;;8.28;100.00;101257.38;5069642;28;20048;-60
2023/03/21 06:54:05;;;;;;;23.38;11.05;;;;;;;8.34;100.00;101260.63;5069637;28;20139;-60
2023/03/21 06:56:34;;;;;;;21.00;10.63;;;;;;;8.36;100.00;101266.66;5070120;28;20084;-60
2023/03/21 06:59:03;;;;;;;18.92;10.93;;;;;;;8.36;100.00;101262.25;5069485;28;20049;-60
2023/03/21 07:01:33;;;;;;;20.58;10.75;;;;;;;8.36;100.00;101258.78;5069135;28;20050;-58
2023/03/21 07:04:01;;;;;;;24.58;11.10;;;;;;;8.39;100.00;101256.84;5068731;28;20043;-58
2023/03/21 07:06:30;;;;;;;22.25;11.10;;;;;;;8.41;100.00;101260.25;5070441;28;20059;-59
2023/03/21 07:08:59;;;;;;;21.17;10.93;;;;;;;8.43;100.00;101262.78;5070240;28;20552;-60
2023/03/21 07:11:27;;;;;;;23.23;10.48;;;;;;;8.45;100.00;101260.94;5069116;28;20131;-60
2023/03/21 07:13:56;;;;;;;24.33;10.98;;;;;;;8.48;100.00;101252.09;5072210;28;20120;-60
2023/03/21 07:16:24;;;;;;;22.33;10.18;;;;;;;8.55;100.00;101253.47;5072147;28;20048;-60
2023/03/21 07:18:55;;;;;;;19.35;10.43;;;;;;;8.57;100.00;101256.88;5072319;28;20503;-60
2023/03/21 07:21:23;;;;;;;22.83;10.02;;;;;;;8.59;100.00;101253.25;5072006;28;20044;-60
2023/03/21 07:23:52;;;;;;;25.33;11.65;;;;;;;8.60;100.00;101256.72;5069778;28;20051;-59
2023/03/21 07:26:21;;;;;;;21.50;9.88;;;;;;;8.63;100.00;101257.44;5069307;28;20136;-58
2023/03/21 07:28:50;;;;;;;16.73;10.13;;;;;;;8.67;100.00;101268.63;5069744;28;20442;-59
2023/03/21 07:31:18;;;;;;;18.05;9.02;;;;;;;8.70;100.00;101262.34;5072232;28;20114;-59
2023/03/21 07:33:47;;;;;;;19.33;9.57;;;;;;;8.73;100.00;101259.59;5072214;28;20102;-59
2023/03/21 07:36:17;;;;;;;20.20;10.32;;;;;;;8.77;100.00;101256.72;5071947;28;20056;-59
2023/03/21 07:38:46;;;;;;;22.10;9.95;;;;;;;8.81;100.00;101254.81;5071773;28;20499;-59
2023/03/21 07:41:14;;;;;;;20.35;8.98;;;;;;;8.87;100.00;101256.25;5072083;28;20507;-59
2023/03/21 07:43:48;;;;;;;16.77;8.80;;;;;;;8.92;100.00;101264.75;5069762;28;20047;-59
2023/03/21 07:46:16;;;;;;;17.08;8.60;;;;;;;8.94;100.00;101261.13;5069087;28;20067;-59
2023/03/21 07:48:45;;;;;;;17.77;8.15;;;;;;;9.01;100.00;101260.78;5072646;28;20600;-59
2023/03/21 07:51:13;;;;;;;17.05;8.38;;;;;;;9.05;100.00;101263.19;5075555;28;20438;-59
2023/03/21 07:53:47;;;;;;;13.60;7.72;;;;;;;9.04;100.00;101265.88;5075836;28;20547;-59
2023/03/21 07:56:15;;;;;;;17.40;7.88;;;;;;;9.09;100.00;101267.34;5075284;28;20048;-59
2023/03/21 07:58:44;;;;;;;19.92;8.02;;;;;;;9.10;100.00;101266.41;5071575;28;20499;-59
2023/03/21 08:01:13;;;;;;;16.67;7.75;;;;;;;9.06;100.00;101266.66;5071847;28;20041;-60
2023/03/21 08:03:42;;;;;;;21.58;8.98;;;;;;;9.06;100.00;101266.66;5071367;28;20044;-59
2023/03/21 08:06:11;;;;;;;16.55;8.25;;;;;;;9.09;100.00;101271.72;5072350;28;20057;-59
2023/03/21 08:08:39;;;;;;;17.65;8.18;;;;;;;9.07;100.00;101268.34;5073535;28;20048;-59
2023/03/21 08:11:12;;;;;;;18.65;8.82;;;;;;;9.10;100.00;101276.88;5075549;28;20040;-59
2023/03/21 08:13:40;;;;;;;18.70;8.25;;;;;;;9.10;100.00;101273.44;5072456;28;20122;-59
2023/03/21 08:16:09;;;;;;;16.67;7.68;;;;;;;9.07;100.00;101268.34;5071285;28;20041;-59
2023/03/21 08:18:38;;;;;;;18.60;8.98;;;;;;;9.06;100.00;101267.47;5071466;28;20052;-59
2023/03/21 08:21:07;;;;;;;21.65;8.30;;;;;;;9.07;100.00;101265.72;5072824;28;20098;-59
2023/03/21 08:23:37;;;;;;;18.15;8.85;;;;;;;9.04;100.00;101263.25;5073936;28;20045;-59
2023/03/21 08:26:06;;;;;;;18.60;8.32;;;;;;;9.18;100.00;101266.00;5075592;28;20407;-59
2023/03/21 08:28:38;;;;;;;13.93;7.32;;;;;;;9.26;100.00;101261.19;5072269;28;20049;-59
2023/03/21 08:31:07;;;;;;;19.10;7.40;;;;;;;9.22;100.00;101259.66;5072195;28;20045;-58
2023/03/21 08:33:36;;;;;;;20.20;8.25;;;;;;;9.19;100.00;101251.09;5075199;28;20471;-58
2023/03/21 08:36:06;;;;;;;17.25;8.15;;;;;;;9.21;100.00;101250.09;5073805;28;20064;-58
2023/03/21 08:38:35;;;;;;;19.77;8.45;;;;;;;9.22;100.00;101249.16;5074757;28;20044;-59
2023/03/21 08:41:04;;;;;;;22.70;8.75;;;;;;;9.22;100.00;101251.78;5072364;28;20553;-58
2023/03/21 08:43:33;;;;;;;20.33;9.23;;;;;;;9.20;100.00;101243.13;5071733;28;20055;-59
2023/03/21 08:46:03;;;;;;;19.00;8.38;;;;;;;9.23;100.00;101245.63;5074945;28;20056;-59
2023/03/21 08:48:32;;;;;;;21.45;8.57;;;;;;;9.25;100.00;101241.13;5072960;28;20495;-59
2023/03/21 08:51:01;;;;;;;17.50;7.82;;;;;;;9.32;100.00;101240.81;5072068;28;20503;-59
2023/03/21 08:53:29;;;;;;;18.27;7.53;;;;;;;9.34;100.00;101241.56;5074263;28;20040;-60
2023/03/21 08:55:58;;;;;;;14.18;7.18;;;;;;;9.36;100.00;101248.44;5075082;28;20101;-59
2023/03/21 08:58:26;;;;;;;15.60;7.43;;;;;;;9.36;100.00;101239.72;5074381;28;20033;-59
2023/03/21 09:00:55;;;;;;;15.10;7.60;;;;;;;9.37;100.00;101237.00;5074750;28;20048;-59
2023/03/21 09:03:26;;;;;;;12.35;7.03;;;;;;;9.46;100.00;101240.91;5071861;28;20070;-59
2023/03/21 09:05:55;;;;;;;17.40;7.60;;;;;;;9.52;100.00;101242.38;5071389;28;20040;-53
2023/03/21 09:08:23;;;;;;;17.15;7.43;;;;;;;9.49;100.00;101238.13;5069344;28;20492;-52
2023/03/21 09:10:53;;;;;;;17.70;8.38;;;;;;;9.46;100.00;101233.03;5070703;28;20528;-52
2023/03/21 09:13:22;;;;;;;20.77;7.88;;;;;;;9.50;100.00;101233.72;5072105;28;20044;-53
2023/03/21 09:15:51;;;;;;;19.52;8.93;;;;;;;9.60;100.00;101235.75;5074112;28;20056;-53
2023/03/21 09:18:37;;;;;;;14.25;7.53;;;;;;;9.58;100.00;101234.97;5074326;28;20043;-53
2023/03/21 09:21:11;;;;;;;16.63;6.93;;;;;;;9.60;100.00;101230.50;5072897;28;20048;-53
2023/03/21 09:23:40;;;;;;;16.38;8.18;;;;;;;9.66;100.00;101229.31;5074220;28;20063;-52
2023/03/21 09:26:09;;;;;;;16.17;8.18;;;;;;;9.74;100.00;101226.28;5073038;28;20040;-53
2023/03/21 09:28:38;;;;;;;16.63;8.10;;;;;;;9.81;100.00;101220.56;5074061;28;20043;-52
2023/03/21 09:31:10;;;;;;;20.27;8.63;;;;;;;9.87;100.00;101219.41;5074415;28;20044;-53
2023/03/21 09:33:40;;;;;;;15.05;7.60;;;;;;;9.87;100.00;101211.53;5074048;28;20057;-53
2023/03/21 09:36:12;;;;;;;17.52;7.95;;;;;;;9.90;100.00;101215.75;5073945;28;20485;-51
2023/03/21 09:38:43;;;;;;;13.77;7.85;;;;;;;9.94;100.00;101218.13;5073744;28;20061;-52
2023/03/21 09:41:27;;;;;;;14.82;8.00;;;;;;;9.84;100.00;101209.03;5073841;28;20074;-53
2023/03/21 09:44:11;;;;;;;18.45;8.25;;;;;;;9.90;100.00;101211.34;5073853;28;20495;-52
2023/03/21 09:46:45;;;;;;;13.75;6.90;;;;;;;9.91;100.00;101210.41;5073914;28;20487;-52
2023/03/21 09:49:19;;;;;;;15.80;8.25;;;;;;;9.93;100.00;101211.16;5072180;28;20071;-53
2023/03/21 09:51:52;;;;;;;16.77;7.28;;;;;;;10.04;100.00;101205.31;5073366;28;20082;-49
2023/03/21 09:54:24;;;;;;;16.35;7.70;;;;;;;9.97;100.00;101196.09;5069066;28;20127;-53
2023/03/21 09:56:57;;;;;;;14.75;7.50;;;;;;;9.84;100.00;101198.53;5070310;28;20040;-52
2023/03/21 09:59:35;;;;;;;14.63;7.50;;;;;;;9.91;100.00;101199.91;5071558;28;20418;-53
2023/03/21 10:02:04;;;;;;;14.48;8.05;;;;;;;9.89;100.00;101191.25;5067164;28;20055;-52
2023/03/21 10:04:35;;;;;;;19.05;8.45;;;;;;;9.88;100.00;101192.19;5068281;28;20045;-52
2023/03/21 10:07:06;;;;;;;18.88;8.95;;;;;;;9.88;100.00;101186.09;5069710;28;20158;-53
2023/03/21 10:09:37;;;;;;;19.55;8.95;;;;;;;9.94;100.00;101196.25;5068491;28;20723;-52
2023/03/21 10:12:08;;;;;;;16.80;8.48;;;;;;;9.95;100.00;101190.06;5068939;28;20083;-51
2023/03/21 10:14:40;;;;;;;19.20;9.70;;;;;;;10.08;100.00;101175.28;5069455;28;21126;-51
2023/03/21 10:17:24;;;;;;;;;;;;;;;10.09;100.00;101170.84;5069545;28;20106;-51
2023/03/21 10:20:09;;;;;;;18.65;8.88;;;;;;;10.09;100.00;101162.97;5069355;28;19924;-52
2023/03/21 10:22:41;;;;;;;21.50;8.98;;;;;;;10.06;100.00;101163.16;5073000;28;20057;-52
2023/03/21 10:25:17;;;;;;;17.98;9.13;;;;;;;10.19;100.00;101148.38;5072991;28;20553;-51
2023/03/21 10:27:46;;;;;;;14.80;8.07;;;;;;;10.18;100.00;101149.31;5072834;28;20063;-51
2023/03/21 10:30:25;;;;;;;15.60;7.90;;;;;;;10.26;100.00;101152.31;5072595;28;20040;-51
2023/03/21 10:32:56;;;;;;;15.95;7.80;;;;;;;10.36;100.00;101143.94;5072828;28;20102;-52
2023/03/21 10:35:27;;;;;;;11.48;7.25;;;;;;;10.38;100.00;101145.53;5072725;28;20048;-52
2023/03/21 10:37:57;;;;;;;13.52;7.30;;;;;;;10.53;100.00;101141.16;5068389;28;20491;-51
2023/03/21 10:40:25;;;;;;;15.80;7.20;;;;;;;10.54;100.00;101145.47;5068731;28;20033;-52
2023/03/21 10:42:56;;;;;;;13.85;7.35;;;;;;;10.46;100.00;101150.34;5068444;28;20048;-51
2023/03/21 10:45:25;;;;;;;15.85;7.20;;;;;;;10.56;100.00;101140.13;5062551;28;20052;-52
2023/03/21 10:47:56;;;;;;;13.65;7.28;;;;;;;10.58;100.00;101139.09;5066300;28;20098;-51
2023/03/21 10:50:30;;;;;;;17.70;8.02;;;;;;;10.66;100.00;101141.25;5067978;28;20040;-52
2023/03/21 10:53:00;;;;;;;14.82;6.82;;;;;;;10.69;100.00;101135.81;5067625;28;20054;-52
2023/03/21 10:55:31;;;;;;;15.05;6.95;;;;;;;10.73;100.00;101134.69;5068356;28;20435;-52
2023/03/21 10:58:06;;;;;;;14.13;7.28;;;;;;;10.74;100.00;101138.16;5068051;28;20053;-51
2023/03/21 11:00:40;;;;;;;15.10;6.55;;;;;;;10.80;100.00;101133.34;5067918;28;20055;-51
2023/03/21 11:03:21;;;;;;;13.02;7.15;;;;;;;10.84;100.00;101128.75;5066537;28;20048;-51
2023/03/21 11:05:55;;;;;;;13.63;6.50;;;;;;;10.96;100.00;101135.03;5067365;28;20040;-51
2023/03/21 11:08:26;;;;;;;15.25;6.93;;;;;;;11.05;100.00;101123.09;5068202;28;20036;-52
2023/03/21 11:11:01;;;;;;;17.80;6.93;;;;;;;11.07;100.00;101129.09;5067975;28;20064;-51
2023/03/21 11:13:36;;;;;;;12.15;6.88;;;;;;;11.24;100.00;101125.41;5066371;28;20060;-51
2023/03/21 11:16:08;;;;;;;13.38;6.57;;;;;;;11.43;100.00;101122.47;5065811;28;20055;-52
2023/03/21 11:18:42;;;;;;;15.73;6.85;;;;;;;11.45;100.00;101121.41;5066904;28;20130;-50
2023/03/21 11:21:13;;;;;;;12.32;6.20;;;;;;;11.51;100.00;101128.06;5051313;28;20189;-51
2023/03/21 11:23:46;;;;;;;11.18;6.32;;;;;;;11.49;100.00;101124.69;5068114;28;20054;-53
2023/03/21 11:26:22;;;;;;;12.77;6.32;;;;;;;11.48;100.00;101129.13;5067147;28;20082;-51
2023/03/21 11:28:52;;;;;;;14.18;6.40;;;;;;;11.43;100.00;101123.28;5066764;28;20127;-51
2023/03/21 11:31:23;;;;;;;16.48;6.30;;;;;;;11.49;100.00;101120.28;5066471;28;20475;-50
2023/03/21 11:33:54;;;;;;;13.47;6.67;;;;;;;11.60;100.00;101126.63;5066457;28;20072;-52
2023/03/21 11:36:33;;;;;;;13.90;5.95;;;;;;;11.63;100.00;101123.78;5067295;28;20052;-50